Time;durP1;ratioP1;P1;durP2;ratioP2;P2;SDS_P1;SDS_P2;PMS_P1;PMS_P2;Temp;Humidity;BMP_temperature;BMP_pressure;BME280_temperature;BME280_humidity;BME280_pressure;Samples;Min_cycle;Max_cycle;Signal;HPM_P1;HPM_P2
2021/08/19 00:01:37;;;;;;;20.35;18.00;;;;;;;21.24;100.00;100083.12;1766218;79;21637;-89
2021/08/19 00:04:10;;;;;;;21.17;18.73;;;;;;;21.30;100.00;100083.38;1782207;79;21493;-88
2021/08/19 00:06:39;;;;;;;21.55;17.85;;;;;;;21.38;100.00;100081.87;1771271;79;20963;-87
2021/08/19 00:09:06;;;;;;;22.52;18.40;;;;;;;21.47;100.00;100086.46;1771306;80;21073;-87
2021/08/19 00:11:35;;;;;;;20.50;17.95;;;;;;;21.53;100.00;100086.98;1771394;80;20994;-88
2021/08/19 00:14:02;;;;;;;30.00;18.17;;;;;;;21.60;100.00;100086.52;1782272;80;21130;-88
2021/08/19 00:16:32;;;;;;;28.52;18.00;;;;;;;21.66;100.00;100085.73;1771376;80;21033;-88
2021/08/19 00:19:00;;;;;;;21.65;18.87;;;;;;;21.73;100.00;100081.75;1782013;79;21002;-88
2021/08/19 00:21:28;;;;;;;20.75;17.20;;;;;;;21.74;100.00;100081.56;1782120;80;20958;-87
2021/08/19 00:23:58;;;;;;;21.77;17.35;;;;;;;21.75;100.00;100085.82;1771425;79;21104;-88
2021/08/19 00:26:28;;;;;;;21.57;17.73;;;;;;;21.67;100.00;100087.34;1782112;80;22157;-89
2021/08/19 00:28:56;;;;;;;25.62;18.50;;;;;;;21.54;100.00;100083.31;1771216;80;20986;-87
2021/08/19 00:31:23;;;;;;;21.07;18.77;;;;;;;21.44;100.00;100083.19;1782181;80;20982;-87
2021/08/19 00:33:51;;;;;;;21.48;19.17;;;;;;;21.41;100.00;100082.28;1782055;79;21017;-87
2021/08/19 00:36:19;;;;;;;22.02;19.62;;;;;;;21.39;100.00;100084.83;1782568;79;21061;-88
2021/08/19 00:38:48;;;;;;;21.73;19.00;;;;;;;21.31;100.00;100087.66;1771152;80;21072;-88
2021/08/19 00:41:16;;;;;;;25.25;18.98;;;;;;;21.23;100.00;100075.40;1782175;79;21045;-88
2021/08/19 00:43:43;;;;;;;21.95;19.50;;;;;;;21.22;100.00;100073.27;1771470;80;21030;-87
2021/08/19 00:46:30;;;;;;;21.50;19.25;;;;;;;21.27;100.00;100070.03;1771314;80;21018;-87
2021/08/19 00:49:09;;;;;;;21.55;18.65;;;;;;;21.31;100.00;100067.28;1782134;80;20983;-87
2021/08/19 00:51:44;;;;;;;21.55;19.35;;;;;;;21.24;100.00;100065.92;1771468;80;21053;-88
2021/08/19 00:54:15;;;;;;;20.97;18.67;;;;;;;21.14;100.00;100070.80;1781136;79;20979;-88
2021/08/19 00:56:42;;;;;;;22.20;19.50;;;;;;;21.03;100.00;100072.67;1770666;80;27154;-88
2021/08/19 00:59:13;;;;;;;28.25;20.70;;;;;;;20.97;100.00;100072.95;1770878;80;20988;-87
2021/08/19 01:01:42;;;;;;;24.77;20.85;;;;;;;20.97;100.00;100062.37;1781808;79;20999;-88
2021/08/19 01:04:12;;;;;;;22.48;20.05;;;;;;;20.91;100.00;100070.58;1740554;79;21045;-88
2021/08/19 01:06:40;;;;;;;24.80;19.50;;;;;;;20.86;100.00;100069.05;1740305;80;21013;-87
2021/08/19 01:09:09;;;;;;;24.77;21.05;;;;;;;20.87;100.00;100071.20;1739572;81;21041;-88
2021/08/19 01:11:40;;;;;;;24.55;20.10;;;;;;;20.87;100.00;100072.52;1741101;81;21107;-89
2021/08/19 01:14:12;;;;;;;22.45;20.08;;;;;;;20.82;100.00;100074.43;1727858;82;21002;-87
2021/08/19 01:16:46;;;;;;;22.07;19.67;;;;;;;20.78;100.00;100067.39;1730720;82;20936;-88
2021/08/19 01:19:23;;;;;;;28.07;21.25;;;;;;;20.79;100.00;100074.81;1730532;82;21441;-87
2021/08/19 01:21:52;;;;;;;25.12;20.82;;;;;;;20.84;100.00;100072.91;1730617;82;21011;-87
2021/08/19 01:24:19;;;;;;;27.87;20.82;;;;;;;20.90;100.00;100072.11;1730732;82;21047;-88
2021/08/19 01:26:48;;;;;;;24.35;20.05;;;;;;;20.93;100.00;100074.37;1734180;82;21015;-88
2021/08/19 01:29:17;;;;;;;20.35;18.23;;;;;;;20.95;100.00;100067.87;1730686;82;21055;-87
2021/08/19 01:32:02;;;;;;;24.70;19.80;;;;;;;20.93;100.00;100072.53;1730516;82;21053;-87
2021/08/19 01:34:31;;;;;;;21.68;18.17;;;;;;;20.92;100.00;100072.73;1730382;82;21074;-88
2021/08/19 01:36:58;;;;;;;24.75;20.17;;;;;;;20.92;100.00;100068.77;1730565;82;21553;-86
2021/08/19 01:39:27;;;;;;;30.52;19.67;;;;;;;20.90;100.00;100068.14;1730639;82;20995;-87
2021/08/19 01:41:54;;;;;;;29.77;20.75;;;;;;;20.87;100.00;100072.00;1730381;82;21103;-88
2021/08/19 01:44:22;;;;;;;28.42;19.95;;;;;;;20.91;100.00;100074.55;1708430;82;21070;-88
2021/08/19 01:47:00;;;;;;;22.58;19.98;;;;;;;20.88;100.00;100071.48;1730104;82;33533;-88
2021/08/19 01:49:32;;;;;;;27.85;21.10;;;;;;;20.82;100.00;100072.27;1708277;82;21517;-88
2021/08/19 01:52:01;;;;;;;25.12;22.40;;;;;;;20.76;100.00;100070.73;1730618;82;21133;-87
2021/08/19 01:54:30;;;;;;;25.40;22.40;;;;;;;20.68;100.00;100069.54;1730532;82;21071;-88
2021/08/19 01:56:57;;;;;;;28.05;22.10;;;;;;;20.61;100.00;100071.33;1730421;82;20987;-86
2021/08/19 01:59:31;;;;;;;27.98;22.30;;;;;;;20.51;100.00;100070.34;1730413;82;20983;-88
2021/08/19 02:02:00;;;;;;;25.02;22.52;;;;;;;20.43;100.00;100072.64;1730639;82;21552;-88
2021/08/19 02:04:27;;;;;;;25.52;22.40;;;;;;;20.36;100.00;100079.72;1749001;80;21089;-88
2021/08/19 02:06:56;;;;;;;24.30;21.52;;;;;;;20.32;100.00;100079.29;1775250;80;21160;-87
2021/08/19 02:09:24;;;;;;;26.77;22.52;;;;;;;20.29;100.00;100080.18;1779085;80;21058;-86
2021/08/19 02:11:51;;;;;;;27.15;22.22;;;;;;;20.32;100.00;100077.97;1775192;80;21141;-88
2021/08/19 02:14:18;;;;;;;25.80;21.80;;;;;;;20.39;100.00;100077.19;1775247;80;21007;-89
2021/08/19 02:16:46;;;;;;;26.48;21.37;;;;;;;20.46;100.00;100078.05;1779062;80;21025;-88
2021/08/19 02:19:13;;;;;;;27.82;22.25;;;;;;;20.49;100.00;100069.22;1775231;80;21115;-87
2021/08/19 02:21:41;;;;;;;24.35;21.77;;;;;;;20.55;100.00;100068.16;1775052;80;21050;-87
2021/08/19 02:24:08;;;;;;;26.25;22.42;;;;;;;20.62;100.00;100071.65;1779156;80;22326;-88
2021/08/19 02:26:35;;;;;;;23.60;21.10;;;;;;;20.68;100.00;100071.34;1775201;80;20998;-88
2021/08/19 02:29:02;;;;;;;24.35;21.52;;;;;;;20.73;100.00;100071.63;1779223;80;21026;-87
2021/08/19 02:31:29;;;;;;;23.10;20.55;;;;;;;20.76;100.00;100072.05;1775286;80;21165;-87
2021/08/19 02:33:55;;;;;;;23.18;20.80;;;;;;;20.78;100.00;100072.69;1779010;80;21042;-87
2021/08/19 02:36:22;;;;;;;23.70;21.07;;;;;;;20.77;100.00;100077.66;1775231;80;21006;-88
2021/08/19 02:38:49;;;;;;;24.18;20.62;;;;;;;20.78;100.00;100075.33;1775287;80;21058;-88
2021/08/19 02:41:16;;;;;;;22.73;19.98;;;;;;;20.79;100.00;100078.26;1775376;80;20999;-87
2021/08/19 02:43:44;;;;;;;24.07;19.80;;;;;;;20.78;100.00;100074.01;1775307;80;21953;-88
2021/08/19 02:46:12;;;;;;;28.00;21.40;;;;;;;20.75;100.00;100079.68;1779153;80;21125;-88
2021/08/19 02:48:41;;;;;;;31.00;21.20;;;;;;;20.72;100.00;100083.99;1775336;80;21136;-88
2021/08/19 02:51:09;;;;;;;34.27;21.40;;;;;;;20.69;100.00;100088.86;1775414;80;21563;-89
2021/08/19 02:53:36;;;;;;;37.30;21.12;;;;;;;20.67;100.00;100089.06;1775684;80;21082;-89
2021/08/19 02:56:05;;;;;;;25.20;20.43;;;;;;;20.66;100.00;100090.07;1775602;80;21104;-89
2021/08/19 02:58:32;;;;;;;25.80;20.92;;;;;;;20.65;100.00;100088.43;1776839;79;21056;-88
2021/08/19 03:00:59;;;;;;;26.52;21.42;;;;;;;20.57;100.00;100089.91;1761316;79;21021;-90
2021/08/19 03:03:27;;;;;;;28.25;22.25;;;;;;;20.48;100.00;100091.90;1776871;79;21061;-87
2021/08/19 03:05:54;;;;;;;33.10;27.25;;;;;;;20.39;100.00;100094.37;1765956;80;21129;-88
2021/08/19 03:08:21;;;;;;;36.03;28.75;;;;;;;20.38;100.00;100087.45;1766100;80;21034;-89
2021/08/19 03:10:47;;;;;;;59.95;42.75;;;;;;;20.42;100.00;100093.48;1777129;79;21069;-90
2021/08/19 03:13:14;;;;;;;68.95;43.30;;;;;;;20.47;100.00;100091.06;1777127;79;21049;-89
2021/08/19 03:15:41;;;;;;;41.73;32.35;;;;;;;20.55;100.00;100094.08;1775347;80;21080;-91
2021/08/19 03:18:10;;;;;;;34.88;27.73;;;;;;;20.62;100.00;100098.91;1775599;79;21070;-89
2021/08/19 03:20:40;;;;;;;33.83;25.93;;;;;;;20.69;100.00;100096.80;1729796;82;21049;-91
2021/08/19 03:23:09;;;;;;;27.87;23.60;;;;;;;20.72;100.00;100099.86;1775890;79;21324;-92
2021/08/19 03:25:37;;;;;;;26.60;23.38;;;;;;;20.72;100.00;100097.73;1763530;80;21089;-88
2021/08/19 03:28:10;;;;;;;26.87;22.02;;;;;;;20.67;100.00;100100.97;1759066;79;21058;-87
2021/08/19 03:30:36;;;;;;;26.27;21.62;;;;;;;20.60;100.00;100100.11;1758674;80;21002;-88
2021/08/19 03:33:07;;;;;;;25.75;22.13;;;;;;;20.55;100.00;100105.17;1790489;79;21062;-90
2021/08/19 03:35:34;;;;;;;30.40;22.27;;;;;;;20.51;100.00;100104.72;1786090;78;20998;-88
2021/08/19 03:38:01;;;;;;;30.00;24.10;;;;;;;20.46;100.00;100104.00;1789282;79;21113;-88
2021/08/19 03:40:28;;;;;;;25.48;21.90;;;;;;;20.44;100.00;100106.50;1775780;80;21551;-91
2021/08/19 03:42:55;;;;;;;25.00;22.40;;;;;;;20.42;100.00;100104.06;1760847;79;21576;-91
2021/08/19 03:45:22;;;;;;;25.68;21.17;;;;;;;20.43;100.00;100101.73;1775491;79;21134;-89
2021/08/19 03:47:49;;;;;;;24.90;21.77;;;;;;;20.43;100.00;100099.09;1787289;79;20943;-93
2021/08/19 03:50:17;;;;;;;26.05;22.60;;;;;;;20.46;100.00;100102.68;1785352;79;21038;-90
2021/08/19 03:52:44;;;;;;;26.05;22.30;;;;;;;20.49;100.00;100102.80;1787106;79;21005;-90
2021/08/19 03:55:12;;;;;;;23.67;21.02;;;;;;;20.53;100.00;100111.96;1787602;79;21105;-90
2021/08/19 03:57:40;;;;;;;25.72;22.20;;;;;;;20.56;100.00;100116.04;1777680;79;21092;-88
2021/08/19 04:00:09;;;;;;;26.52;23.77;;;;;;;20.59;100.00;100111.17;1787192;79;21411;-89
2021/08/19 04:02:40;;;;;;;34.45;25.05;;;;;;;20.61;100.00;100114.98;1776587;79;21469;-89
2021/08/19 04:05:08;;;;;;;76.00;27.80;;;;;;;20.61;100.00;100118.42;1779566;79;22201;-87
2021/08/19 04:07:36;;;;;;;39.48;25.43;;;;;;;20.60;100.00;100115.46;1780370;79;21052;-87
2021/08/19 04:10:04;;;;;;;29.27;25.08;;;;;;;20.60;100.00;100118.63;1780625;79;21124;-86
2021/08/19 04:12:32;;;;;;;28.38;25.08;;;;;;;20.60;100.00;100119.95;1780556;79;21495;-86
2021/08/19 04:14:59;;;;;;;28.70;24.40;;;;;;;20.60;100.00;100115.98;1756207;79;21018;-87
2021/08/19 04:17:30;;;;;;;27.25;24.35;;;;;;;20.53;100.00;100121.22;1778998;79;20975;-86
2021/08/19 04:19:57;;;;;;;27.65;24.67;;;;;;;20.47;100.00;100129.41;1777290;79;21054;-88
2021/08/19 04:22:24;;;;;;;31.45;26.57;;;;;;;20.40;100.00;100120.61;1784931;79;21031;-86
2021/08/19 04:24:53;;;;;;;29.00;25.88;;;;;;;20.32;100.00;100118.94;1781790;79;21008;-86
2021/08/19 04:27:20;;;;;;;29.30;26.07;;;;;;;20.26;100.00;100120.20;1781115;79;21054;-87
2021/08/19 04:29:47;;;;;;;29.23;26.05;;;;;;;20.21;100.00;100119.45;1777708;79;21064;-87
2021/08/19 04:32:15;;;;;;;30.20;26.17;;;;;;;20.21;100.00;100116.00;1784304;79;21608;-87
2021/08/19 04:34:43;;;;;;;29.98;26.62;;;;;;;20.25;100.00;100126.49;1788921;79;21809;-87
2021/08/19 04:37:10;;;;;;;28.80;25.55;;;;;;;20.34;100.00;100129.31;1760619;79;21029;-89
2021/08/19 04:39:39;;;;;;;31.62;25.27;;;;;;;20.44;100.00;100133.78;1781481;79;21091;-89
2021/08/19 04:42:09;;;;;;;29.00;25.30;;;;;;;20.54;100.00;100140.05;1781304;79;20977;-89
2021/08/19 04:44:41;;;;;;;28.77;23.55;;;;;;;20.61;100.00;100137.45;1753949;79;21074;-88
2021/08/19 04:47:08;;;;;;;26.70;23.73;;;;;;;20.73;100.00;100143.86;1726328;82;21464;-92
2021/08/19 04:49:35;;;;;;;29.23;24.45;;;;;;;20.79;100.00;100143.59;1710379;82;21054;-87
2021/08/19 04:52:04;;;;;;;29.82;24.85;;;;;;;20.84;100.00;100133.75;1686824;83;21498;-87
2021/08/19 04:54:31;;;;;;;32.58;24.02;;;;;;;20.90;100.00;100130.33;1725090;82;21086;-88
2021/08/19 04:57:00;;;;;;;32.10;23.92;;;;;;;20.99;100.00;100134.45;1730425;81;21056;-89
2021/08/19 04:59:32;;;;;;;26.57;23.75;;;;;;;21.09;100.00;100134.08;1716996;82;21240;-90
2021/08/19 05:02:12;;;;;;;27.93;24.47;;;;;;;21.18;100.00;100132.10;1774410;79;21125;-89
2021/08/19 05:04:39;;;;;;;27.30;23.30;;;;;;;21.27;100.00;100127.75;1727978;80;20967;-89
2021/08/19 05:07:09;;;;;;;26.80;22.45;;;;;;;21.37;100.00;100128.70;1771902;79;21026;-89
2021/08/19 05:09:38;;;;;;;26.52;23.67;;;;;;;21.47;100.00;100127.52;1761586;80;21053;-93
2021/08/19 05:12:07;;;;;;;32.42;24.85;;;;;;;21.55;100.00;100114.09;1798124;79;21336;-87
2021/08/19 05:14:36;;;;;;;25.30;22.60;;;;;;;21.60;100.00;100115.65;1797776;79;20974;-88
2021/08/19 05:17:03;;;;;;;29.23;23.07;;;;;;;21.66;100.00;100113.55;1797240;79;21121;-88
2021/08/19 05:19:33;;;;;;;26.30;23.52;;;;;;;21.73;100.00;100118.34;1780524;80;21560;-88
2021/08/19 05:22:00;;;;;;;29.35;23.18;;;;;;;21.80;100.00;100119.66;1780415;80;21097;-87
2021/08/19 05:24:29;;;;;;;26.40;23.60;;;;;;;21.86;100.00;100114.07;1780457;80;21218;-87
2021/08/19 05:26:56;;;;;;;26.68;23.25;;;;;;;;;;1758385;80;21002;-88
2021/08/19 05:29:23;;;;;;;26.62;23.10;;;;;;;22.01;100.00;100119.19;1757012;80;20943;-85
2021/08/19 05:31:50;;;;;;;25.30;22.60;;;;;;;22.05;100.00;100115.94;1780311;80;20974;-88
2021/08/19 05:34:17;;;;;;;25.30;22.67;;;;;;;22.10;100.00;100107.87;1771298;79;21037;-89
2021/08/19 05:36:44;;;;;;;26.02;22.82;;;;;;;22.13;100.00;100106.14;1749564;80;21034;-88
2021/08/19 05:39:12;;;;;;;25.72;23.02;;;;;;;22.17;100.00;100112.16;1765817;80;21049;-91
2021/08/19 05:41:39;;;;;;;24.50;21.85;;;;;;;22.19;100.00;100117.25;1771772;79;21034;-87
2021/08/19 05:44:05;;;;;;;25.85;22.52;;;;;;;22.22;100.00;100121.64;1761225;79;21418;-86
2021/08/19 05:46:42;;;;;;;26.60;22.87;;;;;;;22.30;100.00;100123.77;1770320;78;21030;-87
2021/08/19 05:49:09;;;;;;;28.83;23.07;;;;;;;22.39;100.00;100126.56;1790379;78;22252;-87
2021/08/19 05:51:36;;;;;;;28.57;24.72;;;;;;;22.48;100.00;100129.80;1806864;78;21512;-88
2021/08/19 05:54:04;;;;;;;27.67;24.43;;;;;;;22.54;100.00;100132.98;1807796;78;21002;-87
2021/08/19 05:56:31;;;;;;;29.12;23.62;;;;;;;22.64;100.00;100136.53;1800062;78;21065;-89
2021/08/19 05:59:00;;;;;;;28.27;23.92;;;;;;;22.72;100.00;100136.80;1768175;79;21476;-87
2021/08/19 06:01:27;;;;;;;27.52;24.57;;;;;;;22.78;100.00;100134.67;1745158;80;21818;-88
2021/08/19 06:03:54;;;;;;;26.10;23.30;;;;;;;22.84;100.00;100129.85;1726951;80;21515;-86
2021/08/19 06:06:23;;;;;;;27.25;24.05;;;;;;;22.89;100.00;100131.88;1778816;79;21070;-87
2021/08/19 06:08:51;;;;;;;31.35;24.50;;;;;;;22.95;100.00;100129.22;1765469;79;21060;-87
2021/08/19 06:11:20;;;;;;;30.08;23.05;;;;;;;23.02;100.00;100127.85;1750613;80;21004;-90
2021/08/19 06:13:49;;;;;;;29.20;24.80;;;;;;;23.07;100.00;100127.22;1757360;80;21122;-89
2021/08/19 06:16:17;;;;;;;28.92;25.55;;;;;;;23.16;100.00;100123.31;1747646;80;21541;-88
2021/08/19 06:18:44;;;;;;;27.65;23.85;;;;;;;23.27;100.00;100124.02;1765174;79;21029;-91
2021/08/19 06:21:12;;;;;;;29.95;23.35;;;;;;;23.37;100.00;100129.37;1737372;79;20996;-89
2021/08/19 06:23:39;;;;;;;27.50;24.40;;;;;;;23.46;100.00;100114.81;1740257;81;21056;-88
2021/08/19 06:26:08;;;;;;;24.43;21.93;;;;;;;23.56;100.00;100112.52;1740317;81;21013;-89
2021/08/19 06:28:36;;;;;;;25.68;22.95;;;;;;;23.67;100.00;100111.55;1731382;79;21064;-88
2021/08/19 06:31:03;;;;;;;25.68;23.05;;;;;;;23.74;100.00;100105.14;1761583;80;21061;-90
2021/08/19 06:33:34;;;;;;;35.55;23.47;;;;;;;23.83;100.00;100111.03;1748259;80;21085;-87
2021/08/19 06:36:01;;;;;;;26.43;22.20;;;;;;;23.98;100.00;100111.25;1777327;79;21410;-88
2021/08/19 06:38:28;;;;;;;26.70;23.30;;;;;;;24.11;100.00;100111.14;1738082;79;21470;-88
2021/08/19 06:40:55;;;;;;;25.72;22.48;;;;;;;24.21;100.00;100107.48;1721981;80;21053;-89
2021/08/19 06:43:24;;;;;;;24.37;21.80;;;;;;;24.31;100.00;100106.98;1773516;79;21062;-87
2021/08/19 06:45:51;;;;;;;28.25;22.65;;;;;;;24.40;100.00;100107.00;1748128;80;21537;-92
2021/08/19 06:48:18;;;;;;;25.40;22.58;;;;;;;24.51;100.00;100106.78;1748308;79;21023;-87
2021/08/19 06:50:46;;;;;;;28.05;22.75;;;;;;;24.65;100.00;100105.31;1765738;80;21276;-89
2021/08/19 06:53:13;;;;;;;29.00;23.50;;;;;;;24.73;100.00;100105.88;1747984;79;20999;-88
2021/08/19 06:55:40;;;;;;;26.82;23.62;;;;;;;24.80;100.00;100096.47;1748568;80;21662;-87
2021/08/19 06:58:07;;;;;;;25.88;23.05;;;;;;;24.91;100.00;100099.43;1748543;80;20999;-88
2021/08/19 07:00:35;;;;;;;25.92;23.22;;;;;;;25.02;100.00;100098.69;1771862;79;20985;-87
2021/08/19 07:03:03;;;;;;;30.72;24.45;;;;;;;25.12;100.00;100101.62;1809869;78;21497;-87
2021/08/19 07:05:32;;;;;;;30.35;23.87;;;;;;;25.23;100.00;100100.07;1810221;79;20982;-88
2021/08/19 07:08:00;;;;;;;27.40;22.82;;;;;;;25.36;100.00;100106.55;1810611;78;21048;-89
2021/08/19 07:10:27;;;;;;;24.57;21.85;;;;;;;25.49;100.00;100101.58;1756853;78;21030;-88
2021/08/19 07:12:54;;;;;;;25.43;22.73;;;;;;;25.60;100.00;100100.52;1694560;82;20997;-90
2021/08/19 07:15:22;;;;;;;29.37;22.13;;;;;;;25.69;100.00;100100.46;1742049;80;21808;-86
2021/08/19 07:17:49;;;;;;;25.68;22.77;;;;;;;25.79;100.00;100103.92;1748581;80;20998;-86
2021/08/19 07:20:17;;;;;;;24.50;20.97;;;;;;;25.87;100.00;100097.43;1742280;79;20998;-87
2021/08/19 07:22:46;;;;;;;23.20;20.77;;;;;;;25.92;100.00;100091.70;1746833;80;21553;-87
2021/08/19 07:25:15;;;;;;;26.02;21.80;;;;;;;25.98;100.00;100091.31;1754411;80;21512;-86
2021/08/19 07:27:43;;;;;;;26.62;21.27;;;;;;;26.10;100.00;100090.81;1768070;79;21113;-86
2021/08/19 07:30:12;;;;;;;23.85;20.75;;;;;;;26.22;100.00;100091.36;1784695;79;21619;-87
2021/08/19 07:32:39;;;;;;;25.35;21.90;;;;;;;26.33;100.00;100098.53;1771835;79;20970;-88
2021/08/19 07:35:09;;;;;;;24.67;21.95;;;;;;;26.43;100.00;100100.09;1781950;79;21050;-92
2021/08/19 07:38:04;;;;;;;;;;;;;;;;;;;;;
2021/08/19 07:40:40;;;;;;;;;;;;;;;;;;;;;
2021/08/19 07:45:57;;;;;;;24.47;21.23;;;;;;;26.70;100.00;100102.78;1500803;92;21306;-86
2021/08/19 07:48:52;;;;;;;;;;;;;;;;;;;;;
2021/08/19 07:51:16;;;;;;;25.80;20.92;;;;;;;26.88;100.00;100102.67;1559139;90;21077;-88
2021/08/19 07:54:21;;;;;;;;;;;;;;;;;;;;;
2021/08/19 07:56:51;;;;;;;29.45;21.95;;;;;;;27.07;100.00;100099.30;1537660;87;21111;-87
2021/08/19 07:59:24;;;;;;;28.90;21.65;;;;;;;27.16;100.00;100091.70;1663508;79;21053;-88
2021/08/19 08:01:52;;;;;;;24.98;22.13;;;;;;;27.25;100.00;100089.48;1810544;78;20993;-89
2021/08/19 08:04:19;;;;;;;32.50;23.25;;;;;;;27.34;100.00;100085.38;1806019;78;21885;-88
2021/08/19 08:07:15;;;;;;;;;;;;;;;;;;;;;
2021/08/19 08:13:17;;;;;;;24.52;21.40;;;;;;;27.53;100.00;100073.14;1773400;79;21045;-88
2021/08/19 08:15:45;;;;;;;30.92;22.15;;;;;;;27.57;100.00;100069.45;1771627;79;21021;-86
2021/08/19 08:18:17;;;;;;;25.25;20.25;;;;;;;27.66;100.00;100064.00;1769367;79;21097;-86
2021/08/19 08:20:49;;;;;;;22.58;20.27;;;;;;;27.80;100.00;100061.82;1762552;79;21069;-86
2021/08/19 08:23:20;;;;;;;27.55;21.05;;;;;;;27.94;100.00;100064.44;1779450;79;21551;-85
2021/08/19 08:25:49;;;;;;;24.60;20.60;;;;;;;28.05;100.00;100061.93;1768163;80;21045;-89
2021/08/19 08:28:24;;;;;;;25.68;22.30;;;;;;;28.10;100.00;100055.33;1784139;80;21388;-85
2021/08/19 08:30:53;;;;;;;25.48;21.02;;;;;;;28.18;100.00;100057.59;1724719;81;20998;-87
2021/08/19 08:33:21;;;;;;;27.10;20.55;;;;;;;28.30;100.00;100052.95;1760480;79;21053;-87
2021/08/19 08:35:50;;;;;;;28.40;20.52;;;;;;;28.45;100.00;100055.55;1767026;79;21049;-88
2021/08/19 08:38:20;;;;;;;26.57;21.95;;;;;;;28.55;100.00;100055.69;1735338;80;21112;-87
2021/08/19 08:40:50;;;;;;;31.77;20.62;;;;;;;28.67;100.00;100054.73;1809060;78;21450;-88
2021/08/19 08:43:22;;;;;;;26.45;21.33;;;;;;;28.71;100.00;100050.55;1809135;78;20950;-82
2021/08/19 08:45:51;;;;;;;26.20;21.02;;;;;;;28.82;100.00;100053.59;1814383;78;21121;-87
2021/08/19 08:48:24;;;;;;;25.25;20.60;;;;;;;28.90;100.00;100051.81;1809014;79;21525;-83
2021/08/19 08:50:56;;;;;;;27.93;20.70;;;;;;;28.93;100.00;100054.52;1808917;78;21076;-83
2021/08/19 08:53:25;;;;;;;26.40;19.67;;;;;;;28.99;93.78;100053.53;1755337;79;20997;-88
2021/08/19 08:55:52;;;;;;;28.57;19.82;;;;;;;29.05;92.39;100051.69;1733994;81;21046;-90
2021/08/19 08:58:20;;;;;;;23.07;19.75;;;;;;;29.04;92.78;100056.80;1773696;80;21142;-83
2021/08/19 09:00:48;;;;;;;25.27;19.65;;;;;;;29.04;98.36;100052.23;1762202;79;21094;-86
2021/08/19 09:03:18;;;;;;;25.55;20.02;;;;;;;29.03;100.00;100056.52;1753735;81;21065;-88
2021/08/19 09:05:49;;;;;;;22.32;19.77;;;;;;;28.95;98.13;100052.41;1726601;81;21041;-87
2021/08/19 09:08:21;;;;;;;22.85;19.37;;;;;;;28.93;100.00;100052.66;1740789;82;21575;-82
2021/08/19 09:10:51;;;;;;;22.55;19.57;;;;;;;29.00;99.34;100048.97;1758781;80;21822;-84
2021/08/19 09:13:26;;;;;;;22.17;19.57;;;;;;;29.15;100.00;100046.99;1740707;82;21473;-87
2021/08/19 09:16:13;;;;;;;25.85;20.97;;;;;;;29.37;100.00;100046.94;1737750;82;21576;-81
2021/08/19 09:18:41;;;;;;;22.65;19.37;;;;;;;29.61;100.00;100043.39;1767445;80;21447;-83
2021/08/19 09:21:24;;;;;;;23.05;18.55;;;;;;;29.79;93.05;100046.20;1772880;80;21415;-87
2021/08/19 09:24:12;;;;;;;24.43;20.25;;;;;;;29.87;83.87;100040.91;1783018;79;21093;-86
2021/08/19 09:26:39;;;;;;;23.92;19.42;;;;;;;29.94;86.46;100036.67;1809783;78;21504;-85
2021/08/19 09:29:28;;;;;;;26.33;20.60;;;;;;;29.88;79.89;100029.91;1806278;78;20982;-84
2021/08/19 09:32:11;;;;;;;23.50;20.02;;;;;;;29.93;86.01;100025.66;1797438;79;21064;-90
2021/08/19 09:34:41;;;;;;;22.85;19.42;;;;;;;30.00;79.99;100027.60;1781568;80;21010;-86
2021/08/19 09:37:11;;;;;;;24.23;18.87;;;;;;;30.07;92.11;100022.81;1797602;79;20999;-87
2021/08/19 09:39:46;;;;;;;24.98;19.23;;;;;;;30.09;86.39;100031.94;1802861;78;25630;-90
2021/08/19 09:42:14;;;;;;;29.65;20.68;;;;;;;30.10;83.64;100024.95;1804550;79;21025;-83
2021/08/19 09:44:47;;;;;;;25.60;19.92;;;;;;;30.16;77.26;100020.42;1774848;80;21105;-86
2021/08/19 09:47:32;;;;;;;24.92;19.40;;;;;;;30.27;83.71;100023.97;1775108;80;20970;-81
2021/08/19 09:50:13;;;;;;;23.98;18.75;;;;;;;30.40;79.49;100019.48;1790940;78;21104;-86
2021/08/19 09:52:48;;;;;;;24.60;19.05;;;;;;;30.52;74.15;100022.77;1814830;78;21068;-86
2021/08/19 09:55:29;;;;;;;24.25;19.12;;;;;;;30.63;76.27;100026.84;1800369;78;21568;-87
2021/08/19 09:57:59;;;;;;;22.45;16.93;;;;;;;30.73;74.09;100023.37;1782679;79;22039;-87
2021/08/19 10:00:30;;;;;;;25.80;17.90;;;;;;;30.81;67.54;100023.64;1735902;80;21005;-83
2021/08/19 10:02:58;;;;;;;25.82;17.80;;;;;;;30.90;61.71;100019.09;1797838;79;21072;-84
2021/08/19 10:05:26;;;;;;;23.47;18.55;;;;;;;30.96;63.80;100019.40;1795585;79;21014;-84
2021/08/19 10:07:53;;;;;;;25.55;18.42;;;;;;;31.03;67.38;100011.88;1774240;80;21005;-85
2021/08/19 10:10:21;;;;;;;24.05;18.73;;;;;;;31.02;70.74;100019.67;1783703;79;21037;-88
2021/08/19 10:12:50;;;;;;;22.98;18.37;;;;;;;31.03;67.21;100019.95;1771127;80;21243;-86
2021/08/19 10:15:20;;;;;;;23.12;17.40;;;;;;;31.09;62.96;100016.70;1776412;79;21155;-81
2021/08/19 10:17:52;;;;;;;21.23;17.75;;;;;;;31.19;62.56;100012.72;1759997;80;21487;-86
2021/08/19 10:20:24;;;;;;;23.25;17.80;;;;;;;31.26;67.73;100012.47;1760047;79;21093;-88
2021/08/19 10:22:54;;;;;;;23.30;17.80;;;;;;;31.26;61.75;100011.12;1781154;79;21018;-84
2021/08/19 10:25:26;;;;;;;25.80;20.70;;;;;;;31.26;74.38;100018.64;1773749;79;21552;-87
2021/08/19 10:28:16;;;;;;;28.40;19.70;;;;;;;31.30;67.05;100014.35;1769914;80;21049;-84
2021/08/19 10:30:53;;;;;;;22.57;19.33;;;;;;;31.34;63.57;100014.62;1705574;80;21010;-85
2021/08/19 10:33:42;;;;;;;25.30;19.40;;;;;;;31.43;72.81;100015.70;1777028;80;22233;-85
2021/08/19 10:36:26;;;;;;;24.18;19.07;;;;;;;31.53;65.95;100010.84;1776747;79;21022;-89
2021/08/19 10:39:20;;;;;;;26.10;19.25;;;;;;;31.55;61.73;100006.01;1767865;79;21101;-88
2021/08/19 10:41:54;;;;;;;25.15;18.90;;;;;;;31.47;62.00;100007.89;1749875;80;21163;-85
2021/08/19 10:44:34;;;;;;;25.48;18.77;;;;;;;31.38;62.51;100003.58;1776467;80;21003;-86
2021/08/19 10:47:04;;;;;;;23.90;17.87;;;;;;;31.35;63.07;100008.69;1742104;80;20990;-88
2021/08/19 10:49:40;;;;;;;22.65;18.65;;;;;;;31.32;66.73;100000.63;1764129;80;20983;-81
2021/08/19 10:52:15;;;;;;;27.73;18.10;;;;;;;31.31;63.43;99996.31;1755168;80;20936;-86
2021/08/19 10:54:46;;;;;;;22.82;19.27;;;;;;;31.39;63.49;99989.06;1777039;79;21133;-86
2021/08/19 10:57:32;;;;;;;31.35;18.73;;;;;;;31.51;67.18;99981.27;1777516;80;21414;-85
2021/08/19 11:00:06;;;;;;;22.35;18.37;;;;;;;31.59;60.09;99982.05;1777126;79;21530;-87
2021/08/19 11:02:49;;;;;;;34.88;26.87;;;;;;;31.51;60.88;99977.23;1741217;80;20991;-86
2021/08/19 11:05:30;;;;;;;25.27;19.77;;;;;;;31.45;62.64;99979.91;1757746;79;21089;-87
2021/08/19 11:08:04;;;;;;;25.60;19.32;;;;;;;31.43;62.57;99972.66;1747806;80;21096;-88
2021/08/19 11:10:38;;;;;;;24.60;19.07;;;;;;;31.46;67.12;99975.34;1746266;82;21018;-83
2021/08/19 11:13:12;;;;;;;22.35;18.95;;;;;;;31.55;73.47;99976.94;1746128;82;21018;-84
2021/08/19 11:15:46;;;;;;;24.50;18.40;;;;;;;31.60;60.38;99969.67;1746625;81;22009;-83
2021/08/19 11:18:28;;;;;;;24.92;18.60;;;;;;;31.67;58.37;99965.91;1735932;82;21045;-86
2021/08/19 11:20:56;;;;;;;26.75;19.92;;;;;;;31.69;60.85;99964.56;1746644;80;21123;-85
2021/08/19 11:23:29;;;;;;;27.32;19.75;;;;;;;31.78;66.62;99962.92;1734701;82;21045;-86
2021/08/19 11:26:05;;;;;;;26.23;18.23;;;;;;;31.89;55.76;99958.31;1735833;82;21065;-89
2021/08/19 11:28:45;;;;;;;23.70;18.70;;;;;;;31.97;55.20;99954.27;1746243;80;21034;-83
2021/08/19 11:31:24;;;;;;;22.50;17.98;;;;;;;32.09;54.67;99958.78;1746213;80;21493;-88
2021/08/19 11:34:04;;;;;;;23.50;19.20;;;;;;;32.17;56.73;99956.07;1746310;81;21127;-92